Time;durP1;ratioP1;P1;durP2;ratioP2;P2;SDS_P1;SDS_P2;PMS_P1;PMS_P2;Temp;Humidity;BMP_temperature;BMP_pressure;BME280_temperature;BME280_humidity;BME280_pressure;Samples;Min_cycle;Max_cycle;Signal;HPM_P1;HPM_P2
2023/12/14 00:01:13;;;;;;;14.50;11.60;;;11.30;99.90;;;;;;5036380;28;20204;-82
2023/12/14 00:03:41;;;;;;;16.00;11.50;;;11.40;99.90;;;;;;5028292;28;20165;-82
2023/12/14 00:06:13;;;;;;;14.60;12.10;;;11.40;99.90;;;;;;5036205;28;20188;-82
2023/12/14 00:08:39;;;;;;;18.02;13.93;;;11.30;99.90;;;;;;5036332;28;20725;-82
2023/12/14 00:11:05;;;;;;;16.70;12.13;;;11.30;99.90;;;;;;5051417;28;20200;-82
2023/12/14 00:13:31;;;;;;;16.27;10.98;;;11.30;99.90;;;;;;5037776;28;21163;-82
2023/12/14 00:15:57;;;;;;;16.60;12.10;;;11.30;99.90;;;;;;5054208;28;20177;-82
2023/12/14 00:18:22;;;;;;;20.77;14.93;;;11.30;99.90;;;;;;5043967;28;20173;-82
2023/12/14 00:20:48;;;;;;;21.70;14.83;;;11.30;99.90;;;;;;5035803;28;20230;-82
2023/12/14 00:23:14;;;;;;;23.17;15.00;;;11.20;99.90;;;;;;5044489;28;20232;-82
2023/12/14 00:25:40;;;;;;;25.20;15.00;;;11.20;99.90;;;;;;5054234;28;20184;-82
2023/12/14 00:28:05;;;;;;;23.53;15.57;;;11.20;99.90;;;;;;5054076;28;20188;-82
2023/12/14 00:30:31;;;;;;;21.20;14.13;;;11.20;99.90;;;;;;5034552;28;20192;-82
2023/12/14 00:32:56;;;;;;;22.23;15.87;;;11.20;99.90;;;;;;5035887;28;20193;-82
2023/12/14 00:35:22;;;;;;;21.77;14.33;;;11.20;99.90;;;;;;5053458;28;20542;-82
2023/12/14 00:37:48;;;;;;;24.60;16.33;;;11.20;99.90;;;;;;5054013;28;20595;-83
2023/12/14 00:40:13;;;;;;;24.90;17.90;;;11.20;99.90;;;;;;5043503;28;20216;-82
2023/12/14 00:42:39;;;;;;;30.30;20.27;;;11.20;99.90;;;;;;5037735;28;20789;-83
2023/12/14 00:45:05;;;;;;;23.37;16.10;;;11.20;99.90;;;;;;5038828;28;20189;-82
2023/12/14 00:47:31;;;;;;;25.50;17.52;;;11.20;99.90;;;;;;5036736;28;20580;-82
2023/12/14 00:49:56;;;;;;;23.53;17.10;;;11.20;99.90;;;;;;5047291;28;20224;-82
2023/12/14 00:52:22;;;;;;;24.30;16.57;;;11.20;99.90;;;;;;5053415;28;20973;-82
2023/12/14 00:54:48;;;;;;;26.90;17.20;;;11.20;99.90;;;;;;5053216;28;20252;-82
2023/12/14 00:57:13;;;;;;;21.43;14.07;;;11.20;99.90;;;;;;5053254;28;20177;-82
2023/12/14 00:59:40;;;;;;;22.53;16.00;;;11.20;99.90;;;;;;5035051;28;20276;-82
2023/12/14 01:02:06;;;;;;;24.58;16.65;;;11.20;99.90;;;;;;5032251;28;20241;-81
2023/12/14 01:04:32;;;;;;;24.58;16.30;;;11.30;99.90;;;;;;5031063;28;20181;-82
2023/12/14 01:06:58;;;;;;;29.77;18.47;;;11.20;99.90;;;;;;5028039;28;20174;-82
2023/12/14 01:09:23;;;;;;;22.27;16.03;;;11.20;99.90;;;;;;5066305;28;20634;-82
2023/12/14 01:11:49;;;;;;;21.10;14.77;;;11.20;99.90;;;;;;5045533;28;20699;-82
2023/12/14 01:14:15;;;;;;;25.47;15.87;;;11.20;99.90;;;;;;5052997;28;20559;-81
2023/12/14 01:16:40;;;;;;;31.73;17.87;;;11.20;99.90;;;;;;5051726;28;20587;-82
2023/12/14 01:19:06;;;;;;;25.00;17.00;;;11.20;99.90;;;;;;5052285;28;20278;-82
2023/12/14 01:21:32;;;;;;;23.40;15.03;;;11.20;99.90;;;;;;5034716;28;20204;-82
2023/12/14 01:23:58;;;;;;;23.35;17.55;;;11.20;99.90;;;;;;5051713;28;20208;-81
2023/12/14 01:26:24;;;;;;;28.40;16.50;;;11.20;99.90;;;;;;5046958;28;20223;-83
2023/12/14 01:28:49;;;;;;;22.97;16.20;;;11.20;99.90;;;;;;5031108;28;20550;-82
2023/12/14 01:31:15;;;;;;;22.27;16.60;;;11.20;99.90;;;;;;5024429;28;20201;-83
2023/12/14 01:33:41;;;;;;;28.97;19.47;;;11.20;99.90;;;;;;5031240;28;20196;-83
2023/12/14 01:36:07;;;;;;;27.97;19.73;;;11.20;99.90;;;;;;5061118;28;20177;-83
2023/12/14 01:38:32;;;;;;;29.30;18.15;;;11.20;99.90;;;;;;5052527;28;20258;-81
2023/12/14 01:40:59;;;;;;;27.73;18.67;;;11.20;99.90;;;;;;5033686;28;20706;-80
2023/12/14 01:43:24;;;;;;;28.23;20.00;;;11.20;99.90;;;;;;5034513;28;20250;-82
2023/12/14 01:45:50;;;;;;;23.87;16.67;;;11.20;99.90;;;;;;5052336;28;20208;-81
2023/12/14 01:48:16;;;;;;;23.00;16.93;;;11.20;99.90;;;;;;5034148;28;20180;-81
2023/12/14 01:50:42;;;;;;;28.80;19.40;;;11.20;99.90;;;;;;5028999;28;20268;-81
2023/12/14 01:53:07;;;;;;;29.00;17.93;;;11.20;99.90;;;;;;5040848;28;20181;-81
2023/12/14 01:55:33;;;;;;;29.77;19.90;;;11.20;99.90;;;;;;5030619;28;21204;-81
2023/12/14 01:57:59;;;;;;;26.07;18.27;;;11.20;99.90;;;;;;5058044;28;20725;-81
2023/12/14 02:00:35;;;;;;;26.52;18.35;;;11.20;99.90;;;;;;5050616;28;20650;-81
2023/12/14 02:03:00;;;;;;;25.50;18.35;;;11.20;99.90;;;;;;5037263;28;20208;-81
2023/12/14 02:05:26;;;;;;;28.67;19.33;;;11.20;99.90;;;;;;5032742;28;20177;-81
2023/12/14 02:07:52;;;;;;;31.37;19.07;;;11.20;99.90;;;;;;5033015;28;20231;-81
2023/12/14 02:10:18;;;;;;;29.67;18.73;;;11.20;99.90;;;;;;5049850;28;20223;-80
2023/12/14 02:12:43;;;;;;;33.90;20.77;;;11.20;99.90;;;;;;5034160;28;20185;-81
2023/12/14 02:15:09;;;;;;;24.60;17.73;;;11.20;99.90;;;;;;5024250;28;20280;-81
2023/12/14 02:17:35;;;;;;;30.00;19.37;;;11.20;99.90;;;;;;5033603;28;20177;-81
2023/12/14 02:20:01;;;;;;;28.97;19.47;;;11.20;99.90;;;;;;5033165;28;20639;-81
2023/12/14 02:22:27;;;;;;;27.83;18.90;;;11.20;99.90;;;;;;5042801;28;20209;-81
2023/12/14 02:24:52;;;;;;;28.37;18.13;;;11.20;99.90;;;;;;5051369;28;20173;-80
2023/12/14 02:27:18;;;;;;;29.30;19.93;;;11.20;99.90;;;;;;5039460;28;20627;-80
2023/12/14 02:29:43;;;;;;;28.97;18.90;;;11.20;99.90;;;;;;5015883;28;20689;-80
2023/12/14 02:32:09;;;;;;;27.47;18.30;;;11.20;99.90;;;;;;5030181;28;20647;-80
2023/12/14 02:34:35;;;;;;;29.17;19.27;;;11.20;99.90;;;;;;5049994;28;20246;-81
2023/12/14 02:37:00;;;;;;;28.27;20.20;;;11.20;99.90;;;;;;5033997;28;20215;-81
2023/12/14 02:39:27;;;;;;;32.53;21.42;;;11.20;99.90;;;;;;5035076;28;20220;-81
2023/12/14 02:41:53;;;;;;;29.43;21.10;;;11.20;99.90;;;;;;5053173;28;20719;-81
2023/12/14 02:44:19;;;;;;;30.60;19.90;;;11.20;99.90;;;;;;5033174;28;20268;-81
2023/12/14 02:46:44;;;;;;;26.30;17.70;;;11.10;99.90;;;;;;5028852;28;20204;-81
2023/12/14 02:49:10;;;;;;;25.30;17.20;;;11.20;99.90;;;;;;5029228;28;20661;-81
2023/12/14 02:51:36;;;;;;;23.03;16.90;;;11.20;99.90;;;;;;5016963;28;20172;-82
2023/12/14 02:54:01;;;;;;;21.43;15.10;;;11.10;99.90;;;;;;5044096;28;20643;-81
2023/12/14 02:56:27;;;;;;;25.37;16.83;;;11.10;99.90;;;;;;5032098;28;20549;-81
2023/12/14 02:58:53;;;;;;;24.23;15.70;;;11.10;99.90;;;;;;5032664;28;20172;-82
2023/12/14 03:01:21;;;;;;;24.20;16.88;;;11.10;99.90;;;;;;5031809;28;20200;-82
2023/12/14 03:03:47;;;;;;;23.33;16.52;;;11.10;99.90;;;;;;5018253;28;20619;-82
2023/12/14 03:06:13;;;;;;;21.33;14.53;;;11.00;99.90;;;;;;5024889;28;20205;-82
2023/12/14 03:08:38;;;;;;;26.13;17.53;;;11.00;99.90;;;;;;5033342;28;20572;-82
2023/12/14 03:11:04;;;;;;;24.80;17.43;;;11.00;99.90;;;;;;5032843;28;20197;-82
2023/12/14 03:13:30;;;;;;;21.00;15.53;;;11.00;99.90;;;;;;5016631;28;20177;-82
2023/12/14 03:15:55;;;;;;;27.17;17.73;;;11.00;99.90;;;;;;5008516;28;20546;-81
2023/12/14 03:18:21;;;;;;;29.73;18.73;;;10.90;99.90;;;;;;5037285;28;20169;-81
2023/12/14 03:20:47;;;;;;;29.33;19.30;;;10.90;99.90;;;;;;5032849;28;20249;-82
2023/12/14 03:23:12;;;;;;;22.27;16.87;;;10.80;99.90;;;;;;5033130;28;20247;-82
2023/12/14 03:25:38;;;;;;;19.27;14.70;;;10.80;99.90;;;;;;5016777;28;20272;-82
2023/12/14 03:28:03;;;;;;;22.07;15.80;;;10.70;99.90;;;;;;5033021;28;20177;-82
2023/12/14 03:30:29;;;;;;;26.00;16.47;;;10.70;99.90;;;;;;5032625;28;20204;-82
2023/12/14 03:32:55;;;;;;;25.20;16.23;;;10.70;99.90;;;;;;5033142;28;20270;-82
2023/12/14 03:35:20;;;;;;;22.10;16.83;;;10.70;99.90;;;;;;5050838;28;20288;-82
2023/12/14 03:37:46;;;;;;;19.57;15.57;;;10.60;99.90;;;;;;5033062;28;20204;-82
2023/12/14 03:40:12;;;;;;;27.00;17.90;;;10.60;99.90;;;;;;5050121;28;20224;-81
2023/12/14 03:42:37;;;;;;;23.00;16.00;;;10.60;99.90;;;;;;5032878;28;20840;-81
2023/12/14 03:45:04;;;;;;;24.87;17.50;;;10.60;99.90;;;;;;5033118;28;20192;-82
2023/12/14 03:47:29;;;;;;;22.02;15.38;;;10.60;99.90;;;;;;5033043;28;20187;-82
2023/12/14 03:49:55;;;;;;;21.13;16.17;;;10.50;99.90;;;;;;5026924;28;20197;-82
2023/12/14 03:52:21;;;;;;;19.50;15.60;;;10.50;99.90;;;;;;5030825;28;20585;-82
2023/12/14 03:54:46;;;;;;;14.80;12.77;;;10.40;99.90;;;;;;5045528;28;20169;-82
2023/12/14 03:57:12;;;;;;;19.87;14.70;;;10.40;99.90;;;;;;5050982;28;20552;-82
2023/12/14 03:59:41;;;;;;;14.57;13.00;;;10.40;99.90;;;;;;5032429;28;20711;-81
2023/12/14 04:02:06;;;;;;;20.40;14.55;;;10.30;99.90;;;;;;5050882;28;20247;-81
2023/12/14 04:04:32;;;;;;;15.37;12.77;;;10.30;99.90;;;;;;5048310;28;20200;-81
2023/12/14 04:06:58;;;;;;;20.67;16.07;;;10.30;99.90;;;;;;5033092;28;20601;-76
2023/12/14 04:09:24;;;;;;;18.23;13.80;;;10.30;99.90;;;;;;5037890;28;20204;-76
2023/12/14 04:11:49;;;;;;;15.23;12.70;;;10.20;99.90;;;;;;5025566;28;20569;-76
2023/12/14 04:14:15;;;;;;;19.87;15.40;;;10.20;99.90;;;;;;5032499;28;20567;-76
2023/12/14 04:16:41;;;;;;;17.17;13.07;;;10.20;99.90;;;;;;5016285;28;20202;-76
2023/12/14 04:19:09;;;;;;;17.80;13.70;;;10.20;99.90;;;;;;5049609;28;20301;-76
2023/12/14 04:21:36;;;;;;;16.15;12.38;;;10.20;99.90;;;;;;5032050;28;20200;-76
2023/12/14 04:24:02;;;;;;;21.08;15.70;;;10.20;99.90;;;;;;5032156;28;20621;-76
2023/12/14 04:26:28;;;;;;;17.07;13.50;;;10.10;99.90;;;;;;5031778;28;20177;-76
2023/12/14 04:28:53;;;;;;;17.30;13.30;;;10.10;99.90;;;;;;5031645;28;20595;-76
2023/12/14 04:31:19;;;;;;;17.87;13.20;;;10.10;99.90;;;;;;5035750;28;20196;-76
2023/12/14 04:33:45;;;;;;;24.07;16.47;;;10.10;99.90;;;;;;5032017;28;20188;-76
2023/12/14 04:36:10;;;;;;;18.67;14.90;;;10.10;99.90;;;;;;5031923;28;20177;-75
2023/12/14 04:38:36;;;;;;;20.10;15.17;;;10.10;99.90;;;;;;5030644;28;20181;-75
2023/12/14 04:41:02;;;;;;;20.07;16.37;;;10.10;99.90;;;;;;5052248;28;20204;-75
2023/12/14 04:43:29;;;;;;;24.07;18.40;;;10.10;99.90;;;;;;5018563;28;20232;-76
2023/12/14 04:45:55;;;;;;;19.40;16.13;;;10.10;99.90;;;;;;5035458;28;20263;-76
2023/12/14 04:48:21;;;;;;;21.47;17.17;;;10.10;99.90;;;;;;5053109;28;20272;-76
2023/12/14 04:50:46;;;;;;;21.33;16.33;;;10.10;99.90;;;;;;5034602;28;20323;-76
2023/12/14 04:53:12;;;;;;;20.90;16.67;;;10.10;99.90;;;;;;5018830;28;20594;-76
2023/12/14 04:55:38;;;;;;;25.10;18.20;;;10.10;99.90;;;;;;5035161;28;20212;-76
2023/12/14 04:58:03;;;;;;;21.83;16.80;;;10.10;99.90;;;;;;5053196;28;20231;-76
2023/12/14 05:00:29;;;;;;;19.37;15.17;;;10.10;99.90;;;;;;5017935;28;20193;-76
2023/12/14 05:02:55;;;;;;;23.40;16.87;;;10.10;99.90;;;;;;5035296;28;20670;-75
2023/12/14 05:05:20;;;;;;;19.10;15.23;;;10.00;99.90;;;;;;5032234;28;20184;-75
2023/12/14 05:07:46;;;;;;;22.00;16.10;;;10.10;99.90;;;;;;5035621;28;20173;-76
2023/12/14 05:10:12;;;;;;;32.47;24.37;;;10.00;99.90;;;;;;5037137;28;20196;-77
2023/12/14 05:12:38;;;;;;;38.13;26.50;;;10.10;99.90;;;;;;5034823;28;20659;-77
2023/12/14 05:15:05;;;;;;;33.33;23.75;;;10.00;99.90;;;;;;5034976;28;20221;-77
2023/12/14 05:17:31;;;;;;;33.47;24.08;;;10.00;99.90;;;;;;5034919;28;20651;-76
2023/12/14 05:19:58;;;;;;;38.00;26.90;;;10.00;99.90;;;;;;5034202;28;20208;-76
2023/12/14 05:22:24;;;;;;;33.75;23.10;;;10.00;99.90;;;;;;5034732;28;20674;-76
2023/12/14 05:24:49;;;;;;;34.17;23.90;;;10.00;99.90;;;;;;5052549;28;20216;-76
2023/12/14 05:27:15;;;;;;;38.37;23.80;;;10.00;99.90;;;;;;5051655;28;20184;-76
2023/12/14 05:29:41;;;;;;;33.93;22.93;;;10.00;99.90;;;;;;5051839;28;20196;-76
2023/12/14 05:32:07;;;;;;;32.20;19.73;;;10.00;99.90;;;;;;5034566;28;20187;-78
2023/12/14 05:34:32;;;;;;;31.97;22.20;;;9.90;99.90;;;;;;5052505;28;20602;-76
2023/12/14 05:36:58;;;;;;;25.90;18.63;;;9.90;99.90;;;;;;5026230;28;20219;-76
2023/12/14 05:39:24;;;;;;;23.63;17.63;;;9.90;99.90;;;;;;5049311;28;20204;-76
2023/12/14 05:41:50;;;;;;;25.10;18.53;;;9.90;99.90;;;;;;5052339;28;20547;-76
2023/12/14 05:44:15;;;;;;;25.45;17.02;;;9.90;99.90;;;;;;5052094;28;20177;-76
2023/12/14 05:46:41;;;;;;;19.07;14.13;;;9.90;99.90;;;;;;5048415;28;20189;-75
2023/12/14 05:49:07;;;;;;;20.63;16.10;;;9.90;99.90;;;;;;5021518;28;20187;-75
2023/12/14 05:51:33;;;;;;;23.00;15.43;;;9.90;99.90;;;;;;5035156;28;20723;-75
2023/12/14 05:53:59;;;;;;;22.88;16.52;;;9.90;99.90;;;;;;5034083;28;20188;-75
2023/12/14 05:56:25;;;;;;;21.23;14.43;;;9.90;99.90;;;;;;5034143;28;20243;-75
2023/12/14 05:58:51;;;;;;;23.42;15.90;;;9.80;99.90;;;;;;5051270;28;20195;-76
2023/12/14 06:01:18;;;;;;;20.90;16.17;;;9.80;99.90;;;;;;5018373;28;20205;-75
2023/12/14 06:03:44;;;;;;;28.33;18.00;;;9.80;99.90;;;;;;5033529;28;20679;-76
2023/12/14 06:06:11;;;;;;;21.80;15.40;;;9.80;99.90;;;;;;5052008;28;20177;-76
2023/12/14 06:08:37;;;;;;;22.25;15.68;;;9.80;99.90;;;;;;5051477;28;20180;-76
2023/12/14 06:11:05;;;;;;;24.10;16.83;;;9.80;99.90;;;;;;5019308;28;20209;-76
2023/12/14 06:13:32;;;;;;;31.83;19.98;;;9.80;99.90;;;;;;5049275;28;20191;-76
2023/12/14 06:15:57;;;;;;;25.23;17.30;;;9.80;99.90;;;;;;5033953;28;20177;-76
2023/12/14 06:18:23;;;;;;;26.47;17.10;;;9.70;99.90;;;;;;5033937;28;20238;-76
2023/12/14 06:20:49;;;;;;;21.47;15.30;;;9.70;99.90;;;;;;5050836;28;20666;-76
2023/12/14 06:23:14;;;;;;;27.80;18.10;;;9.70;99.90;;;;;;5054632;28;20208;-76
2023/12/14 06:25:40;;;;;;;26.50;17.03;;;9.70;99.90;;;;;;5024427;28;20181;-75
2023/12/14 06:28:06;;;;;;;22.47;16.47;;;9.70;99.90;;;;;;5024409;28;20311;-75
2023/12/14 06:30:31;;;;;;;24.67;16.90;;;9.70;99.90;;;;;;5063357;28;20919;-75
2023/12/14 06:32:57;;;;;;;29.87;17.80;;;9.70;99.90;;;;;;5051340;28;20181;-75
2023/12/14 06:35:23;;;;;;;20.43;16.23;;;9.70;99.90;;;;;;5033349;28;20177;-75
2023/12/14 06:37:48;;;;;;;25.67;15.63;;;9.70;99.90;;;;;;5024973;28;20204;-75
2023/12/14 06:40:14;;;;;;;28.30;17.87;;;9.70;99.90;;;;;;5032761;28;20275;-75
2023/12/14 06:42:40;;;;;;;24.97;16.80;;;9.70;99.90;;;;;;5033349;28;20209;-75
2023/12/14 06:45:06;;;;;;;27.45;17.08;;;9.70;99.90;;;;;;5032899;28;20181;-75
2023/12/14 06:47:32;;;;;;;29.38;19.00;;;9.70;99.90;;;;;;5044636;28;20181;-75
2023/12/14 06:49:57;;;;;;;30.80;19.93;;;9.60;99.90;;;;;;5044892;28;20196;-75
2023/12/14 06:52:23;;;;;;;28.07;18.77;;;9.60;99.90;;;;;;5031528;28;20192;-76
2023/12/14 06:54:49;;;;;;;24.70;18.30;;;9.60;99.90;;;;;;5033038;28;20176;-75
2023/12/14 06:57:15;;;;;;;26.87;16.53;;;9.60;99.90;;;;;;5033267;28;20183;-75
2023/12/14 06:59:40;;;;;;;27.50;18.80;;;9.60;99.90;;;;;;5053317;28;20225;-75
2023/12/14 07:02:06;;;;;;;30.30;19.70;;;9.60;99.90;;;;;;5032628;28;20205;-76
2023/12/14 07:04:32;;;;;;;33.97;21.60;;;9.60;99.90;;;;;;5031945;28;20185;-76
2023/12/14 07:06:58;;;;;;;35.53;21.70;;;9.60;99.90;;;;;;5051192;28;20523;-75
2023/12/14 07:09:24;;;;;;;32.63;20.30;;;9.60;99.90;;;;;;5051656;28;20181;-76
2023/12/14 07:11:50;;;;;;;35.10;21.17;;;9.60;99.90;;;;;;5034511;28;21141;-76
2023/12/14 07:14:16;;;;;;;32.43;20.70;;;9.60;99.90;;;;;;5051782;28;20594;-76
2023/12/14 07:16:42;;;;;;;36.23;20.77;;;9.60;99.90;;;;;;5033917;28;21175;-77
2023/12/14 07:19:07;;;;;;;32.20;21.10;;;9.60;99.90;;;;;;5033876;28;20184;-77
2023/12/14 07:21:33;;;;;;;35.07;20.20;;;9.50;99.90;;;;;;5052123;28;20528;-77
2023/12/14 07:23:59;;;;;;;34.70;22.20;;;9.50;99.90;;;;;;5034161;28;20279;-77
2023/12/14 07:26:25;;;;;;;27.20;18.00;;;9.50;99.90;;;;;;5033690;28;20172;-77
2023/12/14 07:28:53;;;;;;;30.63;21.80;;;9.40;99.90;;;;;;5041454;28;20235;-77
2023/12/14 07:31:19;;;;;;;33.95;21.33;;;9.40;99.90;;;;;;5040740;28;20627;-77
2023/12/14 07:33:45;;;;;;;33.10;21.20;;;9.30;99.90;;;;;;5032625;28;20208;-77
2023/12/14 07:36:11;;;;;;;31.58;19.27;;;9.30;99.90;;;;;;5033456;28;20177;-77
2023/12/14 07:38:37;;;;;;;35.13;20.10;;;9.20;99.90;;;;;;5053401;28;20173;-77
2023/12/14 07:41:03;;;;;;;31.63;19.17;;;9.20;99.90;;;;;;5045668;28;20209;-77
2023/12/14 07:43:29;;;;;;;34.35;18.45;;;9.20;99.90;;;;;;5021456;28;20200;-77
2023/12/14 07:45:54;;;;;;;35.00;20.30;;;9.20;99.90;;;;;;5032541;28;20173;-77
2023/12/14 07:48:20;;;;;;;32.43;19.57;;;9.20;99.90;;;;;;5050450;28;20543;-76
2023/12/14 07:50:48;;;;;;;34.07;19.90;;;9.20;99.90;;;;;;5049352;28;20694;-76
2023/12/14 07:53:14;;;;;;;29.13;18.65;;;9.20;99.90;;;;;;5032207;28;20176;-76
2023/12/14 07:55:40;;;;;;;25.43;17.00;;;9.20;99.90;;;;;;5032087;28;20539;-76
2023/12/14 07:58:06;;;;;;;23.77;15.70;;;9.20;99.90;;;;;;5050221;28;20591;-76
2023/12/14 08:00:32;;;;;;;24.15;15.50;;;9.10;99.90;;;;;;5025115;28;20349;-76
2023/12/14 08:02:57;;;;;;;22.50;14.67;;;9.20;99.90;;;;;;5032383;28;20275;-77
2023/12/14 08:05:23;;;;;;;23.60;15.17;;;9.20;99.90;;;;;;5032387;28;20169;-77
2023/12/14 08:07:52;;;;;;;24.93;15.07;;;9.10;99.90;;;;;;5031995;28;20192;-77
2023/12/14 08:10:18;;;;;;;19.33;14.40;;;9.10;99.90;;;;;;5042335;28;20596;-77
2023/12/14 08:12:44;;;;;;;18.15;12.85;;;9.10;99.90;;;;;;4998814;28;20177;-77
2023/12/14 08:15:11;;;;;;;20.43;14.10;;;9.10;99.90;;;;;;5057928;28;20192;-77
2023/12/14 08:17:37;;;;;;;19.13;12.50;;;9.10;99.90;;;;;;5028010;28;20227;-77
2023/12/14 08:20:08;;;;;;;19.83;12.50;;;9.00;99.90;;;;;;5035649;28;20201;-77
2023/12/14 08:22:34;;;;;;;20.17;12.82;;;9.00;99.90;;;;;;5054207;28;20291;-77
2023/12/14 08:25:00;;;;;;;19.30;13.23;;;9.00;99.90;;;;;;5036493;28;20277;-77
2023/12/14 08:27:26;;;;;;;16.10;10.48;;;9.00;99.90;;;;;;5036631;28;20575;-77
2023/12/14 08:29:52;;;;;;;18.40;12.60;;;9.00;99.90;;;;;;5035502;28;20697;-78
2023/12/14 08:32:17;;;;;;;15.27;11.30;;;9.00;99.90;;;;;;5047429;28;20659;-77
2023/12/14 08:34:43;;;;;;;18.30;13.03;;;9.00;99.90;;;;;;5052435;28;20173;-77
2023/12/14 08:37:09;;;;;;;15.10;11.20;;;8.90;99.90;;;;;;5054310;28;20275;-78
2023/12/14 08:39:34;;;;;;;14.43;10.70;;;8.90;99.90;;;;;;5019301;28;20200;-77
2023/12/14 08:42:00;;;;;;;17.30;11.40;;;8.90;99.90;;;;;;5035962;28;20732;-77
2023/12/14 08:44:26;;;;;;;13.63;9.02;;;8.90;99.90;;;;;;5019547;28;20196;-78
2023/12/14 08:46:52;;;;;;;13.97;10.23;;;8.90;99.90;;;;;;5035227;28;20177;-78
2023/12/14 08:49:17;;;;;;;15.00;10.63;;;8.90;99.90;;;;;;5032298;28;20166;-78
2023/12/14 08:51:43;;;;;;;13.87;9.60;;;8.90;99.90;;;;;;5070537;28;20173;-78
2023/12/14 08:54:09;;;;;;;15.10;10.20;;;8.90;99.90;;;;;;5035663;28;20169;-78
2023/12/14 08:56:35;;;;;;;17.37;10.70;;;8.90;99.90;;;;;;5035640;28;20184;-78
2023/12/14 08:59:03;;;;;;;16.07;11.33;;;8.90;99.90;;;;;;5035390;28;20176;-77
2023/12/14 09:01:29;;;;;;;14.40;9.93;;;8.90;99.90;;;;;;5031379;28;20701;-77
2023/12/14 09:03:55;;;;;;;18.07;12.77;;;8.90;99.90;;;;;;5051445;28;20165;-78
2023/12/14 09:06:20;;;;;;;16.93;12.30;;;8.90;99.90;;;;;;5027230;28;20172;-78
2023/12/14 09:08:46;;;;;;;20.33;12.30;;;8.90;99.90;;;;;;5033741;28;20181;-77
2023/12/14 09:11:12;;;;;;;19.80;14.13;;;8.90;99.90;;;;;;5034869;28;20623;-77
2023/12/14 09:13:38;;;;;;;20.87;13.20;;;8.90;99.90;;;;;;5036437;28;20185;-77
2023/12/14 09:16:04;;;;;;;19.60;13.10;;;8.90;99.90;;;;;;5034754;28;20214;-77
2023/12/14 09:18:30;;;;;;;16.05;11.45;;;8.90;99.90;;;;;;5035021;28;20189;-77
2023/12/14 09:20:56;;;;;;;14.80;11.20;;;8.90;99.90;;;;;;5034024;28;20275;-77
2023/12/14 09:23:21;;;;;;;21.33;14.43;;;8.90;99.90;;;;;;5034624;28;20638;-77
2023/12/14 09:25:47;;;;;;;18.03;12.40;;;8.90;99.90;;;;;;5034727;28;20688;-78
2023/12/14 09:28:13;;;;;;;20.77;13.20;;;8.90;99.90;;;;;;5050671;28;20527;-78
2023/12/14 09:30:38;;;;;;;15.53;11.00;;;8.90;99.90;;;;;;5028697;28;20648;-77
2023/12/14 09:33:04;;;;;;;21.00;15.73;;;8.90;99.90;;;;;;5019592;28;20551;-77
2023/12/14 09:35:30;;;;;;;23.73;16.03;;;8.90;99.90;;;;;;5026741;28;20181;-77
2023/12/14 09:37:56;;;;;;;24.00;16.77;;;8.90;99.90;;;;;;5052934;28;20311;-77
2023/12/14 09:40:22;;;;;;;24.02;15.43;;;8.90;99.90;;;;;;5052160;28;20985;-78
2023/12/14 09:42:48;;;;;;;26.15;15.50;;;8.90;99.90;;;;;;5034605;28;20200;-78
2023/12/14 09:45:16;;;;;;;18.33;13.97;;;8.90;99.90;;;;;;5034917;28;20181;-77
2023/12/14 09:47:44;;;;;;;20.00;14.23;;;8.90;99.90;;;;;;5044310;28;20177;-78
2023/12/14 09:50:10;;;;;;;17.98;12.85;;;8.90;99.90;;;;;;5034133;28;20251;-78
2023/12/14 09:52:35;;;;;;;20.30;13.83;;;8.90;99.90;;;;;;5018358;28;20181;-78
2023/12/14 09:55:03;;;;;;;18.40;13.30;;;8.90;99.90;;;;;;5034516;28;20540;-77
2023/12/14 09:57:29;;;;;;;19.60;13.95;;;8.90;99.90;;;;;;5034455;28;20280;-78
2023/12/14 09:59:55;;;;;;;18.60;12.88;;;8.90;99.90;;;;;;5033530;28;20240;-77
2023/12/14 10:02:27;;;;;;;16.67;13.93;;;8.90;99.90;;;;;;5034622;28;20228;-77
2023/12/14 10:04:52;;;;;;;17.75;13.52;;;8.90;99.90;;;;;;5037865;28;20579;-77
2023/12/14 10:07:19;;;;;;;19.23;13.10;;;8.90;99.90;;;;;;5034177;28;20223;-77
2023/12/14 10:09:45;;;;;;;17.73;14.02;;;8.90;99.90;;;;;;5004780;28;20615;-77
2023/12/14 10:12:11;;;;;;;20.20;13.97;;;8.90;99.90;;;;;;5052008;28;20181;-76
2023/12/14 10:14:38;;;;;;;21.90;14.33;;;8.90;99.90;;;;;;5033823;28;20180;-77
2023/12/14 10:17:16;;;;;;;17.45;12.18;;;8.90;99.90;;;;;;5026173;28;20230;-76
2023/12/14 10:19:46;;;;;;;20.48;14.68;;;8.90;99.90;;;;;;5051264;28;20231;-77
2023/12/14 10:22:17;;;;;;;18.55;14.60;;;8.90;99.90;;;;;;5033803;28;20212;-77
2023/12/14 10:24:44;;;;;;;18.83;13.63;;;8.90;99.90;;;;;;5033735;28;20177;-77
2023/12/14 10:27:11;;;;;;;21.10;14.18;;;8.90;99.90;;;;;;5031750;28;20173;-77
2023/12/14 10:29:39;;;;;;;19.85;12.55;;;8.90;99.90;;;;;;5047815;28;20197;-77
2023/12/14 10:32:06;;;;;;;21.85;14.50;;;8.90;99.90;;;;;;5044149;28;20270;-77
2023/12/14 10:34:35;;;;;;;21.77;14.27;;;8.90;99.90;;;;;;5051594;28;20189;-77
2023/12/14 10:37:04;;;;;;;20.42;14.10;;;8.90;99.90;;;;;;5051015;28;20633;-77
2023/12/14 10:39:30;;;;;;;19.88;13.32;;;8.90;99.90;;;;;;5033093;28;20662;-77
2023/12/14 10:41:58;;;;;;;21.38;15.20;;;8.90;99.90;;;;;;5053807;28;20204;-76
2023/12/14 10:44:30;;;;;;;20.80;13.65;;;8.90;99.90;;;;;;5034401;28;20204;-75
2023/12/14 10:46:58;;;;;;;23.92;15.68;;;8.90;99.90;;;;;;5033187;28;20169;-75
2023/12/14 10:49:25;;;;;;;26.25;17.88;;;8.80;99.90;;;;;;5034416;28;20218;-75
2023/12/14 10:51:57;;;;;;;25.00;18.00;;;8.80;99.90;;;;;;5052561;28;20173;-75
2023/12/14 10:54:27;;;;;;;27.65;17.42;;;8.80;99.90;;;;;;5033852;28;20184;-75
2023/12/14 10:56:56;;;;;;;26.80;18.17;;;8.70;99.90;;;;;;5033630;28;20196;-75
2023/12/14 10:59:24;;;;;;;22.20;16.65;;;8.70;99.90;;;;;;5032795;28;20180;-75
2023/12/14 11:01:54;;;;;;;22.60;17.15;;;8.70;99.90;;;;;;5051288;28;20211;-76
2023/12/14 11:04:23;;;;;;;20.70;15.35;;;8.60;99.90;;;;;;5033307;28;20209;-76
2023/12/14 11:06:49;;;;;;;19.90;13.68;;;8.60;99.90;;;;;;5050890;28;20254;-75
2023/12/14 11:09:18;;;;;;;20.17;14.43;;;8.60;99.90;;;;;;5015129;28;20208;-74
2023/12/14 11:11:53;;;;;;;24.08;15.73;;;8.60;99.90;;;;;;5049588;28;20579;-74
2023/12/14 11:14:20;;;;;;;20.27;14.82;;;8.60;99.90;;;;;;5032836;28;20172;-74
2023/12/14 11:16:47;;;;;;;17.10;13.25;;;8.60;99.90;;;;;;5050628;28;20169;-74
2023/12/14 11:19:25;;;;;;;17.73;13.18;;;8.60;99.90;;;;;;5034003;28;20177;-74
2023/12/14 11:21:57;;;;;;;22.65;15.85;;;8.60;99.90;;;;;;5032216;28;20203;-74
2023/12/14 11:24:23;;;;;;;18.45;13.18;;;8.60;99.90;;;;;;5032664;28;20168;-74
2023/12/14 11:26:52;;;;;;;19.45;14.95;;;8.60;99.90;;;;;;5032420;28;20184;-74
2023/12/14 11:29:19;;;;;;;16.80;13.43;;;8.60;99.90;;;;;;5031943;28;20188;-74
2023/12/14 11:31:45;;;;;;;20.20;14.18;;;8.60;99.90;;;;;;5032694;28;20697;-74
2023/12/14 11:34:12;;;;;;;17.42;13.52;;;8.60;99.90;;;;;;5032591;28;20646;-74
2023/12/14 11:36:41;;;;;;;18.98;15.05;;;8.60;99.90;;;;;;5032689;28;20202;-74
2023/12/14 11:39:07;;;;;;;18.83;14.75;;;8.60;99.90;;;;;;5032004;28;20558;-74
2023/12/14 11:41:34;;;;;;;18.88;14.27;;;8.60;99.90;;;;;;5032232;28;20621;-75
2023/12/14 11:43:59;;;;;;;17.63;13.13;;;8.60;99.90;;;;;;5050299;28;20525;-74
2023/12/14 11:46:25;;;;;;;20.10;14.00;;;8.60;99.90;;;;;;5034913;28;20184;-74
2023/12/14 11:48:51;;;;;;;16.50;12.90;;;8.60;99.90;;;;;;5033544;28;20176;-74
2023/12/14 11:51:18;;;;;;;22.10;15.20;;;8.60;99.90;;;;;;5043194;28;20193;-74
2023/12/14 11:53:45;;;;;;;18.58;13.88;;;8.60;99.90;;;;;;5035701;28;21021;-75
2023/12/14 11:56:12;;;;;;;17.98;13.60;;;8.60;99.90;;;;;;5026621;28;20189;-74
2023/12/14 11:58:41;;;;;;;19.15;14.40;;;8.60;99.90;;;;;;5032597;28;20172;-74
2023/12/14 12:01:12;;;;;;;19.80;13.93;;;8.60;99.90;;;;;;5027443;28;20551;-74
2023/12/14 12:03:37;;;;;;;17.58;14.95;;;8.70;99.90;;;;;;5036231;28;20227;-73
2023/12/14 12:06:03;;;;;;;15.37;12.00;;;8.60;99.90;;;;;;5036393;28;20219;-74
2023/12/14 12:08:29;;;;;;;22.07;15.03;;;8.70;99.90;;;;;;5036343;28;20184;-74
2023/12/14 12:10:57;;;;;;;15.80;13.57;;;8.70;99.90;;;;;;5043308;28;21156;-74
2023/12/14 12:13:22;;;;;;;17.50;13.35;;;8.70;99.90;;;;;;5036270;28;20641;-74
2023/12/14 12:15:48;;;;;;;16.57;12.63;;;8.70;99.90;;;;;;5036201;28;20177;-74
2023/12/14 12:18:16;;;;;;;15.90;12.63;;;8.70;99.90;;;;;;5035928;28;20217;-75
2023/12/14 12:20:42;;;;;;;18.02;13.75;;;8.70;99.90;;;;;;5035498;28;20196;-75
2023/12/14 12:23:08;;;;;;;20.10;13.37;;;8.70;99.90;;;;;;5035881;28;20262;-74
2023/12/14 12:25:35;;;;;;;25.47;17.27;;;8.70;99.90;;;;;;5053867;28;20599;-75
2023/12/14 12:28:02;;;;;;;19.48;12.82;;;8.80;99.90;;;;;;5035935;28;20599;-75